sensor_id;sensor_type;location;lat;lon;timestamp;pressure;altitude;pressure_sealevel;temperature
39959;BMP280;25639;53.634;9.880;2023-04-25T00:01:01;148951.69;;;-13.92
39959;BMP280;25639;53.634;9.880;2023-04-25T00:03:27;148934.16;;;-13.99
39959;BMP280;25639;53.634;9.880;2023-04-25T00:05:54;148920.41;;;-14.05
39959;BMP280;25639;53.634;9.880;2023-04-25T00:08:21;148904.13;;;-14.12
39959;BMP280;25639;53.634;9.880;2023-04-25T00:10:47;148912.88;;;-14.08
39959;BMP280;25639;53.634;9.880;2023-04-25T00:13:13;148897.91;;;-14.14
39959;BMP280;25639;53.634;9.880;2023-04-25T00:15:40;148934.16;;;-13.99
39959;BMP280;25639;53.634;9.880;2023-04-25T00:18:07;148927.88;;;-14.02
39959;BMP280;25639;53.634;9.880;2023-04-25T00:20:32;148911.66;;;-14.09
39959;BMP280;25639;53.634;9.880;2023-04-25T00:22:57;148897.91;;;-14.14
39959;BMP280;25639;53.634;9.880;2023-04-25T00:25:23;148891.63;;;-14.17
39959;BMP280;25639;53.634;9.880;2023-04-25T00:27:48;148887.84;;;-14.18
39959;BMP280;25639;53.634;9.880;2023-04-25T00:30:14;148851.59;;;-14.33
39959;BMP280;25639;53.634;9.880;2023-04-25T00:32:39;148844.06;;;-14.36
39959;BMP280;25639;53.634;9.880;2023-04-25T00:35:05;148834.09;;;-14.41
39959;BMP280;25639;53.634;9.880;2023-04-25T00:37:30;148851.59;;;-14.33
39959;BMP280;25639;53.634;9.880;2023-04-25T00:39:57;148862.81;;;-14.29
39959;BMP280;25639;53.634;9.880;2023-04-25T00:42:24;148850.34;;;-14.34
39959;BMP280;25639;53.634;9.880;2023-04-25T00:44:49;148834.09;;;-14.41
39959;BMP280;25639;53.634;9.880;2023-04-25T00:47:15;148826.56;;;-14.44
39959;BMP280;25639;53.634;9.880;2023-04-25T00:49:40;148799.06;;;-14.55
39959;BMP280;25639;53.634;9.880;2023-04-25T00:52:05;148819.03;;;-14.47
39959;BMP280;25639;53.634;9.880;2023-04-25T00:54:31;148804.06;;;-14.53
39959;BMP280;25639;53.634;9.880;2023-04-25T00:56:56;148812.81;;;-14.49
39959;BMP280;25639;53.634;9.880;2023-04-25T00:59:22;148810.28;;;-14.50
39959;BMP280;25639;53.634;9.880;2023-04-25T01:01:47;148794.06;;;-14.57
39959;BMP280;25639;53.634;9.880;2023-04-25T01:04:13;148794.06;;;-14.57
39959;BMP280;25639;53.634;9.880;2023-04-25T01:06:38;148791.59;;;-14.58
39959;BMP280;25639;53.634;9.880;2023-04-25T01:09:04;148766.56;;;-14.68
39959;BMP280;25639;53.634;9.880;2023-04-25T01:11:30;148776.59;;;-14.64
39959;BMP280;25639;53.634;9.880;2023-04-25T01:13:56;148776.59;;;-14.64
39959;BMP280;25639;53.634;9.880;2023-04-25T01:16:21;148770.31;;;-14.67
39959;BMP280;25639;53.634;9.880;2023-04-25T01:18:49;148781.59;;;-14.62
39959;BMP280;25639;53.634;9.880;2023-04-25T01:21:15;148754.06;;;-14.73
39959;BMP280;25639;53.634;9.880;2023-04-25T01:23:42;148761.56;;;-14.70
39959;BMP280;25639;53.634;9.880;2023-04-25T01:26:09;148749.06;;;-14.75
39959;BMP280;25639;53.634;9.880;2023-04-25T01:28:35;148731.56;;;-14.83
39959;BMP280;25639;53.634;9.880;2023-04-25T01:31:00;148734.06;;;-14.82
39959;BMP280;25639;53.634;9.880;2023-04-25T01:33:26;148706.59;;;-14.93
39959;BMP280;25639;53.634;9.880;2023-04-25T01:35:51;148699.06;;;-14.96
39959;BMP280;25639;53.634;9.880;2023-04-25T01:38:17;148729.09;;;-14.84
39959;BMP280;25639;53.634;9.880;2023-04-25T01:40:44;148734.06;;;-14.82
39959;BMP280;25639;53.634;9.880;2023-04-25T01:43:10;148719.03;;;-14.88
39959;BMP280;25639;53.634;9.880;2023-04-25T01:45:38;148699.06;;;-14.96
39959;BMP280;25639;53.634;9.880;2023-04-25T01:48:09;148682.81;;;-15.03
39959;BMP280;25639;53.634;9.880;2023-04-25T01:50:34;148691.56;;;-14.99
39959;BMP280;25639;53.634;9.880;2023-04-25T01:53:00;148666.53;;;-15.09
39959;BMP280;25639;53.634;9.880;2023-04-25T01:55:27;148689.06;;;-15.00
39959;BMP280;25639;53.634;9.880;2023-04-25T01:57:52;148697.84;;;-14.97
39959;BMP280;25639;53.634;9.880;2023-04-25T02:00:18;148671.59;;;-15.07
39959;BMP280;25639;53.634;9.880;2023-04-25T02:02:43;148659.06;;;-15.12
39959;BMP280;25639;53.634;9.880;2023-04-25T02:05:08;148661.53;;;-15.11
39959;BMP280;25639;53.634;9.880;2023-04-25T02:07:34;148674.06;;;-15.06
39959;BMP280;25639;53.634;9.880;2023-04-25T02:09:59;148706.59;;;-14.93
39959;BMP280;25639;53.634;9.880;2023-04-25T02:12:25;148690.31;;;-15.00
39959;BMP280;25639;53.634;9.880;2023-04-25T02:14:51;148706.59;;;-14.93
39959;BMP280;25639;53.634;9.880;2023-04-25T02:17:16;148694.06;;;-14.98
39959;BMP280;25639;53.634;9.880;2023-04-25T02:19:42;148711.56;;;-14.91
39959;BMP280;25639;53.634;9.880;2023-04-25T02:22:08;148712.81;;;-14.90
39959;BMP280;25639;53.634;9.880;2023-04-25T02:24:33;148701.53;;;-14.95
39959;BMP280;25639;53.634;9.880;2023-04-25T02:26:59;148695.31;;;-14.98
39959;BMP280;25639;53.634;9.880;2023-04-25T02:29:25;148697.84;;;-14.97
39959;BMP280;25639;53.634;9.880;2023-04-25T02:31:50;148696.53;;;-14.97
39959;BMP280;25639;53.634;9.880;2023-04-25T02:34:15;148687.78;;;-15.01
39959;BMP280;25639;53.634;9.880;2023-04-25T02:36:40;148677.81;;;-15.05
39959;BMP280;25639;53.634;9.880;2023-04-25T02:39:06;148686.56;;;-15.01
39959;BMP280;25639;53.634;9.880;2023-04-25T02:41:31;148696.53;;;-14.97
39959;BMP280;25639;53.634;9.880;2023-04-25T02:43:56;148694.06;;;-14.98
39959;BMP280;25639;53.634;9.880;2023-04-25T02:46:22;148660.31;;;-15.12
39959;BMP280;25639;53.634;9.880;2023-04-25T02:48:47;148659.06;;;-15.12
39959;BMP280;25639;53.634;9.880;2023-04-25T02:51:12;148667.81;;;-15.09
39959;BMP280;25639;53.634;9.880;2023-04-25T02:53:37;148600.31;;;-15.37
39959;BMP280;25639;53.634;9.880;2023-04-25T02:56:03;148574.06;;;-15.47
39959;BMP280;25639;53.634;9.880;2023-04-25T02:58:28;148581.56;;;-15.44
39959;BMP280;25639;53.634;9.880;2023-04-25T03:00:54;148591.56;;;-15.40
39959;BMP280;25639;53.634;9.880;2023-04-25T03:03:20;148572.81;;;-15.48
39959;BMP280;25639;53.634;9.880;2023-04-25T03:05:48;148539.06;;;-15.62
39959;BMP280;25639;53.634;9.880;2023-04-25T03:08:13;148545.34;;;-15.59
39959;BMP280;25639;53.634;9.880;2023-04-25T03:10:39;148537.84;;;-15.62
39959;BMP280;25639;53.634;9.880;2023-04-25T03:13:04;148514.06;;;-15.72
39959;BMP280;25639;53.634;9.880;2023-04-25T03:15:30;148499.16;;;-15.78
39959;BMP280;25639;53.634;9.880;2023-04-25T03:17:56;148504.13;;;-15.76
39959;BMP280;25639;53.634;9.880;2023-04-25T03:20:21;148466.66;;;-15.91
39959;BMP280;25639;53.634;9.880;2023-04-25T03:22:46;148471.69;;;-15.89
39959;BMP280;25639;53.634;9.880;2023-04-25T03:25:12;148451.69;;;-15.98
39959;BMP280;25639;53.634;9.880;2023-04-25T03:27:37;148437.94;;;-16.03
39959;BMP280;25639;53.634;9.880;2023-04-25T03:30:02;148434.19;;;-16.05
39959;BMP280;25639;53.634;9.880;2023-04-25T03:32:28;148435.44;;;-16.04
39959;BMP280;25639;53.634;9.880;2023-04-25T03:34:53;148446.69;;;-16.00
39959;BMP280;25639;53.634;9.880;2023-04-25T03:37:18;148407.97;;;-16.16
39959;BMP280;25639;53.634;9.880;2023-04-25T03:39:44;148409.19;;;-16.15
39959;BMP280;25639;53.634;9.880;2023-04-25T03:42:09;148422.94;;;-16.09
39959;BMP280;25639;53.634;9.880;2023-04-25T03:44:34;148401.75;;;-16.18
39959;BMP280;25639;53.634;9.880;2023-04-25T03:47:00;148435.44;;;-16.04
39959;BMP280;25639;53.634;9.880;2023-04-25T03:49:25;148406.72;;;-16.16
39959;BMP280;25639;53.634;9.880;2023-04-25T03:51:50;148432.97;;;-16.05
39959;BMP280;25639;53.634;9.880;2023-04-25T03:54:16;148402.97;;;-16.18
39959;BMP280;25639;53.634;9.880;2023-04-25T03:56:41;148402.97;;;-16.18
39959;BMP280;25639;53.634;9.880;2023-04-25T03:59:06;148419.22;;;-16.11
39959;BMP280;25639;53.634;9.880;2023-04-25T04:01:32;148417.94;;;-16.12
39959;BMP280;25639;53.634;9.880;2023-04-25T04:03:58;148393.00;;;-16.22
39959;BMP280;25639;53.634;9.880;2023-04-25T04:06:23;148386.72;;;-16.24
39959;BMP280;25639;53.634;9.880;2023-04-25T04:08:48;148384.25;;;-16.25
39959;BMP280;25639;53.634;9.880;2023-04-25T04:11:13;148378.00;;;-16.28
39959;BMP280;25639;53.634;9.880;2023-04-25T04:13:39;148364.25;;;-16.34
39959;BMP280;25639;53.634;9.880;2023-04-25T04:16:04;148339.28;;;-16.44
39959;BMP280;25639;53.634;9.880;2023-04-25T04:18:30;148323.03;;;-16.51
39959;BMP280;25639;53.634;9.880;2023-04-25T04:20:55;148346.78;;;-16.41
39959;BMP280;25639;53.634;9.880;2023-04-25T04:23:23;148348.03;;;-16.40
39959;BMP280;25639;53.634;9.880;2023-04-25T04:25:48;148360.50;;;-16.35
39959;BMP280;25639;53.634;9.880;2023-04-25T04:28:13;148373.00;;;-16.30
39959;BMP280;25639;53.634;9.880;2023-04-25T04:30:39;148364.25;;;-16.34
39959;BMP280;25639;53.634;9.880;2023-04-25T04:33:04;148386.72;;;-16.24
39959;BMP280;25639;53.634;9.880;2023-04-25T04:35:30;148373.00;;;-16.30
39959;BMP280;25639;53.634;9.880;2023-04-25T04:37:55;148412.94;;;-16.14
39959;BMP280;25639;53.634;9.880;2023-04-25T04:40:21;148400.47;;;-16.19
39959;BMP280;25639;53.634;9.880;2023-04-25T04:42:47;148393.00;;;-16.22
39959;BMP280;25639;53.634;9.880;2023-04-25T04:45:13;148395.47;;;-16.21
39959;BMP280;25639;53.634;9.880;2023-04-25T04:47:39;148410.47;;;-16.15
39959;BMP280;25639;53.634;9.880;2023-04-25T04:50:09;148435.44;;;-16.04
39959;BMP280;25639;53.634;9.880;2023-04-25T04:52:38;148437.94;;;-16.03
39959;BMP280;25639;53.634;9.880;2023-04-25T04:55:04;148441.69;;;-16.02
39959;BMP280;25639;53.634;9.880;2023-04-25T04:57:30;148436.72;;;-16.04
39959;BMP280;25639;53.634;9.880;2023-04-25T04:59:56;148419.22;;;-16.11
39959;BMP280;25639;53.634;9.880;2023-04-25T05:02:21;148417.94;;;-16.12
39959;BMP280;25639;53.634;9.880;2023-04-25T05:04:46;148393.00;;;-16.22
39959;BMP280;25639;53.634;9.880;2023-04-25T05:07:12;148401.75;;;-16.18
39959;BMP280;25639;53.634;9.880;2023-04-25T05:09:37;148373.00;;;-16.30
39959;BMP280;25639;53.634;9.880;2023-04-25T05:12:03;148354.28;;;-16.38
39959;BMP280;25639;53.634;9.880;2023-04-25T05:14:29;148356.75;;;-16.37
39959;BMP280;25639;53.634;9.880;2023-04-25T05:16:54;148369.25;;;-16.32
39959;BMP280;25639;53.634;9.880;2023-04-25T05:19:19;148361.75;;;-16.35
39959;BMP280;25639;53.634;9.880;2023-04-25T05:21:45;148376.75;;;-16.28
39959;BMP280;25639;53.634;9.880;2023-04-25T05:24:10;148369.25;;;-16.32
39959;BMP280;25639;53.634;9.880;2023-04-25T05:26:37;148394.22;;;-16.21
39959;BMP280;25639;53.634;9.880;2023-04-25T05:29:02;148431.69;;;-16.06
39959;BMP280;25639;53.634;9.880;2023-04-25T05:31:27;148420.47;;;-16.10
39959;BMP280;25639;53.634;9.880;2023-04-25T05:33:53;148425.44;;;-16.08
39959;BMP280;25639;53.634;9.880;2023-04-25T05:36:18;148444.16;;;-16.01
39959;BMP280;25639;53.634;9.880;2023-04-25T05:38:44;148450.44;;;-15.98
39959;BMP280;25639;53.634;9.880;2023-04-25T05:41:10;148482.91;;;-15.85
39959;BMP280;25639;53.634;9.880;2023-04-25T05:43:35;148520.34;;;-15.69
39959;BMP280;25639;53.634;9.880;2023-04-25T05:46:00;148512.84;;;-15.73
39959;BMP280;25639;53.634;9.880;2023-04-25T05:48:25;148550.34;;;-15.57
39959;BMP280;25639;53.634;9.880;2023-04-25T05:50:51;148561.56;;;-15.52
39959;BMP280;25639;53.634;9.880;2023-04-25T05:53:17;148599.06;;;-15.37
39959;BMP280;25639;53.634;9.880;2023-04-25T05:55:42;148622.78;;;-15.27
39959;BMP280;25639;53.634;9.880;2023-04-25T05:58:07;148634.06;;;-15.23
39959;BMP280;25639;53.634;9.880;2023-04-25T06:00:33;148640.28;;;-15.20
39959;BMP280;25639;53.634;9.880;2023-04-25T06:02:58;148670.28;;;-15.08
39959;BMP280;25639;53.634;9.880;2023-04-25T06:05:24;148684.03;;;-15.02
39959;BMP280;25639;53.634;9.880;2023-04-25T06:07:50;148674.06;;;-15.06
39959;BMP280;25639;53.634;9.880;2023-04-25T06:10:18;148690.31;;;-15.00
39959;BMP280;25639;53.634;9.880;2023-04-25T06:12:43;148704.06;;;-14.94
39959;BMP280;25639;53.634;9.880;2023-04-25T06:15:09;148676.56;;;-15.05
39959;BMP280;25639;53.634;9.880;2023-04-25T06:17:35;148660.31;;;-15.12
39959;BMP280;25639;53.634;9.880;2023-04-25T06:20:00;148717.81;;;-14.88
39959;BMP280;25639;53.634;9.880;2023-04-25T06:22:26;148675.28;;;-15.06
39959;BMP280;25639;53.634;9.880;2023-04-25T06:24:52;148689.06;;;-15.00
39959;BMP280;25639;53.634;9.880;2023-04-25T06:27:17;148685.31;;;-15.02
39959;BMP280;25639;53.634;9.880;2023-04-25T06:29:42;148659.06;;;-15.12
39959;BMP280;25639;53.634;9.880;2023-04-25T06:32:07;148709.06;;;-14.92
39959;BMP280;25639;53.634;9.880;2023-04-25T06:34:33;148734.06;;;-14.82
39959;BMP280;25639;53.634;9.880;2023-04-25T06:36:58;148706.59;;;-14.93
39959;BMP280;25639;53.634;9.880;2023-04-25T06:39:23;148684.03;;;-15.02
39959;BMP280;25639;53.634;9.880;2023-04-25T06:41:50;148680.34;;;-15.04
39959;BMP280;25639;53.634;9.880;2023-04-25T06:44:15;148711.56;;;-14.91
39959;BMP280;25639;53.634;9.880;2023-04-25T06:46:40;148725.31;;;-14.85
39959;BMP280;25639;53.634;9.880;2023-04-25T06:49:06;148757.81;;;-14.72
39959;BMP280;25639;53.634;9.880;2023-04-25T06:51:31;148755.34;;;-14.73
39959;BMP280;25639;53.634;9.880;2023-04-25T06:53:57;148769.09;;;-14.67
39959;BMP280;25639;53.634;9.880;2023-04-25T06:56:22;148779.06;;;-14.63
39959;BMP280;25639;53.634;9.880;2023-04-25T06:58:48;148845.31;;;-14.36
39959;BMP280;25639;53.634;9.880;2023-04-25T07:01:14;148869.09;;;-14.26
39959;BMP280;25639;53.634;9.880;2023-04-25T07:03:39;148809.06;;;-14.51
39959;BMP280;25639;53.634;9.880;2023-04-25T07:06:05;148799.06;;;-14.55
39959;BMP280;25639;53.634;9.880;2023-04-25T07:08:30;148764.09;;;-14.69
39959;BMP280;25639;53.634;9.880;2023-04-25T07:10:55;148732.84;;;-14.82
39959;BMP280;25639;53.634;9.880;2023-04-25T07:13:20;148739.06;;;-14.80
39959;BMP280;25639;53.634;9.880;2023-04-25T07:15:46;148700.31;;;-14.95
39959;BMP280;25639;53.634;9.880;2023-04-25T07:18:13;148675.28;;;-15.06
39959;BMP280;25639;53.634;9.880;2023-04-25T07:20:38;148677.81;;;-15.05
39959;BMP280;25639;53.634;9.880;2023-04-25T07:23:03;148666.53;;;-15.09
39959;BMP280;25639;53.634;9.880;2023-04-25T07:25:29;148705.31;;;-14.93
39959;BMP280;25639;53.634;9.880;2023-04-25T07:27:55;148726.56;;;-14.85
39959;BMP280;25639;53.634;9.880;2023-04-25T07:30:21;148764.09;;;-14.69
39959;BMP280;25639;53.634;9.880;2023-04-25T07:32:46;148809.06;;;-14.51
39959;BMP280;25639;53.634;9.880;2023-04-25T07:35:12;148850.34;;;-14.34
39959;BMP280;25639;53.634;9.880;2023-04-25T07:37:37;148894.13;;;-14.16
39959;BMP280;25639;53.634;9.880;2023-04-25T07:40:03;148916.66;;;-14.07
39959;BMP280;25639;53.634;9.880;2023-04-25T07:42:29;148934.16;;;-13.99
39959;BMP280;25639;53.634;9.880;2023-04-25T07:44:55;149024.28;;;-13.63
39959;BMP280;25639;53.634;9.880;2023-04-25T07:47:20;149088.09;;;-13.36
39959;BMP280;25639;53.634;9.880;2023-04-25T07:49:46;149125.63;;;-13.21
39959;BMP280;25639;53.634;9.880;2023-04-25T07:52:12;149174.47;;;-13.01
39959;BMP280;25639;53.634;9.880;2023-04-25T07:54:37;149120.63;;;-13.23
39959;BMP280;25639;53.634;9.880;2023-04-25T07:57:02;149079.34;;;-13.40
39959;BMP280;25639;53.634;9.880;2023-04-25T07:59:28;149026.78;;;-13.62
39959;BMP280;25639;53.634;9.880;2023-04-25T08:01:53;148995.47;;;-13.74
39959;BMP280;25639;53.634;9.880;2023-04-25T08:04:19;148975.44;;;-13.83
39959;BMP280;25639;53.634;9.880;2023-04-25T08:06:44;148997.97;;;-13.73
39959;BMP280;25639;53.634;9.880;2023-04-25T08:09:10;148999.25;;;-13.73
39959;BMP280;25639;53.634;9.880;2023-04-25T08:11:36;148981.72;;;-13.80
39959;BMP280;25639;53.634;9.880;2023-04-25T08:14:01;148992.97;;;-13.75
39959;BMP280;25639;53.634;9.880;2023-04-25T08:16:27;148954.16;;;-13.91
39959;BMP280;25639;53.634;9.880;2023-04-25T08:18:52;148926.66;;;-14.03
39959;BMP280;25639;53.634;9.880;2023-04-25T08:21:18;148956.69;;;-13.90
39959;BMP280;25639;53.634;9.880;2023-04-25T08:23:43;149105.59;;;-13.29
39959;BMP280;25639;53.634;9.880;2023-04-25T08:26:08;149150.69;;;-13.11
39959;BMP280;25639;53.634;9.880;2023-04-25T08:28:33;149109.34;;;-13.28
39959;BMP280;25639;53.634;9.880;2023-04-25T08:30:59;149030.53;;;-13.60
39959;BMP280;25639;53.634;9.880;2023-04-25T08:33:25;148980.44;;;-13.81
39959;BMP280;25639;53.634;9.880;2023-04-25T08:35:50;148972.97;;;-13.84
39959;BMP280;25639;53.634;9.880;2023-04-25T08:38:16;148924.16;;;-14.04
39959;BMP280;25639;53.634;9.880;2023-04-25T08:40:43;148934.16;;;-13.99
39959;BMP280;25639;53.634;9.880;2023-04-25T08:43:08;148980.44;;;-13.81
39959;BMP280;25639;53.634;9.880;2023-04-25T08:45:41;149089.34;;;-13.36
39959;BMP280;25639;53.634;9.880;2023-04-25T08:48:16;149156.94;;;-13.08
39959;BMP280;25639;53.634;9.880;2023-04-25T08:50:50;149405.00;;;-12.06
39959;BMP280;25639;53.634;9.880;2023-04-25T08:53:20;149467.63;;;-11.81
39959;BMP280;25639;53.634;9.880;2023-04-25T08:55:46;149415.03;;;-12.02
39959;BMP280;25639;53.634;9.880;2023-04-25T08:58:12;149249.59;;;-12.70
39959;BMP280;25639;53.634;9.880;2023-04-25T09:00:38;149098.09;;;-13.32
39959;BMP280;25639;53.634;9.880;2023-04-25T09:03:03;149103.09;;;-13.30
39959;BMP280;25639;53.634;9.880;2023-04-25T09:05:28;149130.63;;;-13.19
39959;BMP280;25639;53.634;9.880;2023-04-25T09:07:54;149105.59;;;-13.29
39959;BMP280;25639;53.634;9.880;2023-04-25T09:10:19;149126.88;;;-13.20
39959;BMP280;25639;53.634;9.880;2023-04-25T09:12:44;149139.41;;;-13.15
39959;BMP280;25639;53.634;9.880;2023-04-25T09:15:12;149212.06;;;-12.86
39959;BMP280;25639;53.634;9.880;2023-04-25T09:17:37;149253.38;;;-12.69
39959;BMP280;25639;53.634;9.880;2023-04-25T09:20:09;149318.53;;;-12.42
39959;BMP280;25639;53.634;9.880;2023-04-25T09:22:36;149512.75;;;-11.62
39959;BMP280;25639;53.634;9.880;2023-04-25T09:25:12;149426.31;;;-11.98
39959;BMP280;25639;53.634;9.880;2023-04-25T09:27:50;149234.59;;;-12.76
39959;BMP280;25639;53.634;9.880;2023-04-25T09:30:16;149026.78;;;-13.62
39959;BMP280;25639;53.634;9.880;2023-04-25T09:32:43;148909.13;;;-14.10
39959;BMP280;25639;53.634;9.880;2023-04-25T09:35:08;148794.06;;;-14.57
39959;BMP280;25639;53.634;9.880;2023-04-25T09:37:34;148756.56;;;-14.72
39959;BMP280;25639;53.634;9.880;2023-04-25T09:40:05;148844.06;;;-14.36
39959;BMP280;25639;53.634;9.880;2023-04-25T09:42:31;148967.97;;;-13.86
39959;BMP280;25639;53.634;9.880;2023-04-25T09:44:58;149081.88;;;-13.39
39959;BMP280;25639;53.634;9.880;2023-04-25T09:47:25;149164.47;;;-13.05
39959;BMP280;25639;53.634;9.880;2023-04-25T09:49:54;149372.41;;;-12.20
39959;BMP280;25639;53.634;9.880;2023-04-25T09:52:24;149412.53;;;-12.03
39959;BMP280;25639;53.634;9.880;2023-04-25T09:54:50;149507.75;;;-11.64
39959;BMP280;25639;53.634;9.880;2023-04-25T09:57:20;149415.03;;;-12.02
39959;BMP280;25639;53.634;9.880;2023-04-25T10:02:15;149339.84;;;-12.33
39959;BMP280;25639;53.634;9.880;2023-04-25T10:04:41;149575.47;;;-11.37
39959;BMP280;25639;53.634;9.880;2023-04-25T10:07:07;149436.34;;;-11.94
39959;BMP280;25639;53.634;9.880;2023-04-25T10:09:33;149377.41;;;-12.18
39959;BMP280;25639;53.634;9.880;2023-04-25T10:12:02;149309.75;;;-12.45
39959;BMP280;25639;53.634;9.880;2023-04-25T10:14:29;149367.38;;;-12.22
39959;BMP280;25639;53.634;9.880;2023-04-25T10:16:55;149362.38;;;-12.24
39959;BMP280;25639;53.634;9.880;2023-04-25T10:19:21;149262.16;;;-12.65
39959;BMP280;25639;53.634;9.880;2023-04-25T10:21:52;149263.38;;;-12.64
39959;BMP280;25639;53.634;9.880;2023-04-25T10:24:19;149517.81;;;-11.60
39959;BMP280;25639;53.634;9.880;2023-04-25T10:26:45;149628.16;;;-11.15
39959;BMP280;25639;53.634;9.880;2023-04-25T10:29:12;149787.50;;;-10.50
39959;BMP280;25639;53.634;9.880;2023-04-25T10:31:45;149838.91;;;-10.29
39959;BMP280;25639;53.634;9.880;2023-04-25T10:34:12;149876.59;;;-10.13
39959;BMP280;25639;53.634;9.880;2023-04-25T10:36:37;149797.56;;;-10.46
39959;BMP280;25639;53.634;9.880;2023-04-25T10:39:06;149552.91;;;-11.46
39959;BMP280;25639;53.634;9.880;2023-04-25T10:41:45;149621.88;;;-11.18
39959;BMP280;25639;53.634;9.880;2023-04-25T10:44:12;149658.28;;;-11.03
39959;BMP280;25639;53.634;9.880;2023-04-25T10:46:37;149490.19;;;-11.72
39959;BMP280;25639;53.634;9.880;2023-04-25T10:49:03;149391.22;;;-12.12
39959;BMP280;25639;53.634;9.880;2023-04-25T10:51:30;149357.38;;;-12.26
39959;BMP280;25639;53.634;9.880;2023-04-25T10:54:02;149466.38;;;-11.81
39959;BMP280;25639;53.634;9.880;2023-04-25T10:56:30;149540.38;;;-11.51
39959;BMP280;25639;53.634;9.880;2023-04-25T10:59:05;149590.50;;;-11.31
39959;BMP280;25639;53.634;9.880;2023-04-25T11:01:36;149452.59;;;-11.87
39959;BMP280;25639;53.634;9.880;2023-04-25T11:04:02;149328.53;;;-12.38
39959;BMP280;25639;53.634;9.880;2023-04-25T11:06:52;149213.31;;;-12.85
39959;BMP280;25639;53.634;9.880;2023-04-25T11:09:23;149182.00;;;-12.98
39959;BMP280;25639;53.634;9.880;2023-04-25T11:11:56;149130.63;;;-13.19
39959;BMP280;25639;53.634;9.880;2023-04-25T11:14:22;149134.41;;;-13.17
39959;BMP280;25639;53.634;9.880;2023-04-25T11:16:52;149175.69;;;-13.00
39959;BMP280;25639;53.634;9.880;2023-04-25T11:19:19;149422.56;;;-11.99
39959;BMP280;25639;53.634;9.880;2023-04-25T11:21:45;149626.91;;;-11.16
39959;BMP280;25639;53.634;9.880;2023-04-25T11:24:11;149527.81;;;-11.56
39959;BMP280;25639;53.634;9.880;2023-04-25T11:26:36;149462.63;;;-11.83
39959;BMP280;25639;53.634;9.880;2023-04-25T11:29:02;149394.94;;;-12.11
39959;BMP280;25639;53.634;9.880;2023-04-25T11:31:29;149392.47;;;-12.12
39959;BMP280;25639;53.634;9.880;2023-04-25T11:33:56;149476.41;;;-11.77
39959;BMP280;25639;53.634;9.880;2023-04-25T11:36:23;149710.97;;;-10.81
39959;BMP280;25639;53.634;9.880;2023-04-25T11:38:50;149718.50;;;-10.78
39959;BMP280;25639;53.634;9.880;2023-04-25T11:41:15;149788.78;;;-10.49
39959;BMP280;25639;53.634;9.880;2023-04-25T11:43:43;149763.66;;;-10.60
39959;BMP280;25639;53.634;9.880;2023-04-25T11:46:08;149659.50;;;-11.02
39959;BMP280;25639;53.634;9.880;2023-04-25T11:48:40;149649.50;;;-11.06
39959;BMP280;25639;53.634;9.880;2023-04-25T11:51:06;149514.03;;;-11.62
39959;BMP280;25639;53.634;9.880;2023-04-25T11:53:32;149402.47;;;-12.07
39959;BMP280;25639;53.634;9.880;2023-04-25T11:55:57;149374.94;;;-12.19
39959;BMP280;25639;53.634;9.880;2023-04-25T11:58:22;149389.94;;;-12.13
39959;BMP280;25639;53.634;9.880;2023-04-25T12:00:48;149445.13;;;-11.90
39959;BMP280;25639;53.634;9.880;2023-04-25T12:03:13;149649.50;;;-11.06
39959;BMP280;25639;53.634;9.880;2023-04-25T12:05:38;149822.63;;;-10.36
39959;BMP280;25639;53.634;9.880;2023-04-25T12:08:12;149688.38;;;-10.90
39959;BMP280;25639;53.634;9.880;2023-04-25T12:10:39;149638.19;;;-11.11
39959;BMP280;25639;53.634;9.880;2023-04-25T12:13:38;149571.72;;;-11.38
39959;BMP280;25639;53.634;9.880;2023-04-25T12:16:03;149698.41;;;-10.86
39959;BMP280;25639;53.634;9.880;2023-04-25T12:18:28;149796.28;;;-10.46
39959;BMP280;25639;53.634;9.880;2023-04-25T12:20:54;149816.38;;;-10.38
39959;BMP280;25639;53.634;9.880;2023-04-25T12:23:26;149795.03;;;-10.47
39959;BMP280;25639;53.634;9.880;2023-04-25T12:25:53;149875.31;;;-10.14
39959;BMP280;25639;53.634;9.880;2023-04-25T12:28:22;149987.09;;;-9.68
39959;BMP280;25639;53.634;9.880;2023-04-25T12:31:03;150078.81;;;-9.31
39959;BMP280;25639;53.634;9.880;2023-04-25T12:33:33;150112.75;;;-9.17
39959;BMP280;25639;53.634;9.880;2023-04-25T12:35:59;150071.25;;;-9.34
39959;BMP280;25639;53.634;9.880;2023-04-25T12:38:29;150010.94;;;-9.59
39959;BMP280;25639;53.634;9.880;2023-04-25T12:40:57;149815.13;;;-10.39
39959;BMP280;25639;53.634;9.880;2023-04-25T12:43:22;149562.94;;;-11.42
39959;BMP280;25639;53.634;9.880;2023-04-25T12:45:52;149359.84;;;-12.25
39959;BMP280;25639;53.634;9.880;2023-04-25T12:48:18;149337.31;;;-12.34
39959;BMP280;25639;53.634;9.880;2023-04-25T12:50:43;149394.94;;;-12.11
39959;BMP280;25639;53.634;9.880;2023-04-25T12:53:09;149534.06;;;-11.54
39959;BMP280;25639;53.634;9.880;2023-04-25T12:55:35;149695.88;;;-10.87
39959;BMP280;25639;53.634;9.880;2023-04-25T12:58:00;149722.22;;;-10.77
39959;BMP280;25639;53.634;9.880;2023-04-25T13:00:26;149763.66;;;-10.60
39959;BMP280;25639;53.634;9.880;2023-04-25T13:02:51;149689.63;;;-10.90
39959;BMP280;25639;53.634;9.880;2023-04-25T13:05:17;149516.53;;;-11.61
39959;BMP280;25639;53.634;9.880;2023-04-25T13:07:42;149295.97;;;-12.51
39959;BMP280;25639;53.634;9.880;2023-04-25T13:10:07;149078.09;;;-13.40
39959;BMP280;25639;53.634;9.880;2023-04-25T13:12:33;148985.47;;;-13.78
39959;BMP280;25639;53.634;9.880;2023-04-25T13:14:58;149038.06;;;-13.57
39959;BMP280;25639;53.634;9.880;2023-04-25T13:17:23;149083.09;;;-13.38
39959;BMP280;25639;53.634;9.880;2023-04-25T13:19:49;149034.28;;;-13.58
39959;BMP280;25639;53.634;9.880;2023-04-25T13:22:14;149069.34;;;-13.44
39959;BMP280;25639;53.634;9.880;2023-04-25T13:24:42;149184.47;;;-12.97
39959;BMP280;25639;53.634;9.880;2023-04-25T13:27:07;149258.38;;;-12.67
39959;BMP280;25639;53.634;9.880;2023-04-25T13:29:32;149344.84;;;-12.31
39959;BMP280;25639;53.634;9.880;2023-04-25T13:32:00;149422.56;;;-11.99
39959;BMP280;25639;53.634;9.880;2023-04-25T13:34:25;149408.78;;;-12.05
39959;BMP280;25639;53.634;9.880;2023-04-25T13:36:51;149283.44;;;-12.56
39959;BMP280;25639;53.634;9.880;2023-04-25T13:39:16;149115.59;;;-13.25
39959;BMP280;25639;53.634;9.880;2023-04-25T13:41:41;148947.94;;;-13.94